Data for 01/20/2005

Time Sea-Level Adjusted Pressure Absolute Pressure Temperature Relative Humidity Dew Point   
(mb) (inHg) (mb) (inHg) (C) (F) (%) (C) (F)
00:05 1021 30.15 851 25.13 10.7 51.2 35 -4 24.7
00:10 1021 30.15 851 25.13 10.6 51.1 36 -3.9 25
00:15 1021 30.15 851 25.13 10.5 50.8 37 -3.7 25.4
00:20 1021 30.15 850 25.1 10.2 50.4 38 -3.4 25.9
00:25 1021 30.15 850 25.1 10.1 50.1 38 -3.5 25.6
00:30 1021 30.15 850 25.1 10 50 39 -3.4 25.9
00:35 1021 30.15 850 25.1 9.8 49.7 39 -3.3 26.1
00:40 1021 30.15 850 25.1 9.6 49.3 40 -3.3 26.1
00:45 1021 30.15 850 25.1 9.6 49.3 40 -3.2 26.2
00:50 1021 30.15 850 25.1 9.6 49.2 40 -3.3 26.1
00:55 1021 30.15 850 25.1 9.5 49.1 40 -3.3 26.1
01:00 1021 30.15 850 25.1 9.6 49.3 40 -3.2 26.2
01:05 1021 30.15 850 25.1 9.6 49.2 39 -3.5 25.6
01:10 1021 30.15 850 25.1 9.7 49.5 37 -4.2 24.4
01:15 1021 30.15 850 25.1 10.5 50.8 35 -4.2 24.5
01:20 1021 30.15 850 25.1 10.6 51 36 -4 24.9
01:25 1021 30.15 850 25.1 10.5 51 37 -3.5 25.6
01:30 1021 30.15 850 25.1 10.6 51 34 -4.5 23.9
01:35 1021 30.15 850 25.1 11.1 51.9 35 -3.9 24.9
01:40 1021 30.15 850 25.1 10.3 50.5 39 -2.9 26.9
01:45 1021 30.15 850 25.1 9.2 48.5 42 -3 26.5
01:50 1021 30.15 850 25.1 8.9 48 40 -4 24.9
01:55 1021 30.15 850 25.1 9.5 49.1 39 -3.8 25.1
02:00 1021 30.15 850 25.1 9.8 49.7 37 -4.1 24.6
02:05 1021 30.15 850 25.1 10.1 50.3 36 -4.2 24.5
02:10 1021 30.15 850 25.1 10.4 50.7 35 -4.3 24.2
02:15 1021 30.15 850 25.1 10.5 50.9 35 -4.3 24.2
02:20 1021 30.15 850 25.1 10.6 51.1 35 -4.3 24.2
02:25 1021 30.15 850 25.1 10.7 51.2 35 -4.2 24.4
02:30 1021 30.15 850 25.1 10.6 51 35 -4.2 24.5
02:35 1021 30.15 850 25.1 10.4 50.8 35 -4.3 24.3
02:40 1021 30.15 850 25.1 10.4 50.8 35 -4.3 24.3
02:45 1021 30.15 850 25.1 10.6 51 35 -4.1 24.6
02:50 1021 30.15 850 25.1 10.5 50.8 34 -4.5 23.8
02:55 1021 30.15 850 25.1 11.1 51.9 33 -4.6 23.7
03:00 1021 30.15 850 25.1 11.4 52.6 32 -4.6 23.7
03:05 1021 30.15 850 25.1 11.8 53.3 31 -4.8 23.4
03:10 1021 30.15 850 25.1 12 53.7 32 -4.2 24.4
03:15 1021 30.15 850 25.1 11.5 52.7 33 -4.2 24.5
03:20 1021 30.15 850 25.1 11 51.8 34 -4.2 24.5
03:25 1021 30.15 850 25.1 10.8 51.4 35 -4.2 24.4
03:30 1021 30.15 850 25.1 10.8 51.5 34 -4.4 24.1
03:35 1021 30.15 850 25.1 10.9 51.6 34 -4.4 24.1
03:40 1021 30.15 850 25.1 11 51.8 33 -4.5 23.9
03:45 1021 30.15 850 25.1 11.2 52.1 33 -4.5 23.8
03:50 1021 30.15 850 25.1 11.3 52.3 33 -4.3 24.2
03:55 1021 30.15 850 25.1 11.3 52.3 33 -4.3 24.3
04:00 1021 30.15 850 25.1 10.9 51.6 35 -3.9 24.9
04:05 1021 30.15 850 25.1 10.3 50.5 37 -3.8 25.2
04:10 1021 30.15 850 25.1 9.9 49.9 37 -3.9 24.9
04:15 1021 30.15 850 25.1 9.9 49.7 38 -3.8 25.2
04:20 1021 30.15 850 25.1 9.7 49.4 38 -3.8 25.2
04:25 1020 30.12 850 25.1 9.7 49.4 38 -3.9 25
04:30 1020 30.12 850 25.1 9.6 49.3 39 -3.7 25.4
04:35 1020 30.12 850 25.1 9.5 49.1 39 -3.7 25.4
04:40 1020 30.12 850 25.1 9.8 49.6 39 -3.6 25.6
04:45 1020 30.12 850 25.1 9.7 49.4 38 -4 24.8
04:50 1020 30.12 850 25.1 9.9 49.8 39 -3.5 25.7
04:55 1020 30.12 850 25.1 9.7 49.4 39 -3.5 25.7
05:00 1020 30.12 850 25.1 9.4 48.8 41 -3.1 26.4
05:05 1020 30.12 850 25.1 9.1 48.4 41 -3.4 25.9
05:10 1020 30.12 850 25.1 9.1 48.4 41 -3.3 26.1
05:15 1020 30.12 850 25.1 9.1 48.3 42 -3.2 26.2
05:20 1020 30.12 850 25.1 9 48.1 43 -3 26.6
05:25 1020 30.12 850 25.1 8.5 47.2 45 -2.7 27.2
05:30 1020 30.12 850 25.1 8.2 46.8 46 -2.8 26.9
05:35 1020 30.12 850 25.1 8 46.4 47 -2.7 27.1
05:40 1020 30.12 850 25.1 7.8 46 48 -2.5 27.5
05:45 1020 30.12 850 25.1 7.6 45.7 47 -3 26.7
05:50 1020 30.12 850 25.1 7.7 45.9 48 -2.7 27.1
05:55 1020 30.12 850 25.1 7.7 45.8 48 -2.6 27.4
06:00 1020 30.12 850 25.1 7.3 45.1 49 -2.8 26.9
06:05 1020 30.12 850 25.1 7.7 45.8 48 -2.6 27.4
06:10 1020 30.12 850 25.1 7.7 45.8 48 -2.6 27.3
06:15 1020 30.12 850 25.1 8.1 46.5 47 -2.4 27.6
06:20 1020 30.12 850 25.1 7.5 45.6 49 -2.4 27.7
06:25 1021 30.15 850 25.1 7.1 44.8 52 -2.1 28.1
06:30 1021 30.15 850 25.1 7.2 44.9 50 -2.5 27.4
06:35 1021 30.15 850 25.1 6.9 44.5 52 -2.2 28.1
06:40 1021 30.15 850 25.1 6.6 44 53 -2.1 28.2
06:45 1021 30.15 850 25.1 7 44.5 52 -2.3 27.9
06:50 1021 30.15 850 25.1 6.9 44.4 52 -2.4 27.7
06:55 1021 30.15 850 25.1 6.8 44.2 53 -2.2 28
07:00 1021 30.15 850 25.1 6.6 43.8 52 -2.6 27.3
07:05 1021 30.15 850 25.1 6.9 44.5 54 -1.8 28.7
07:10 1021 30.15 850 25.1 6.6 43.9 53 -2.3 27.9
07:15 1021 30.15 850 25.1 6.6 43.9 55 -1.8 28.7
07:20 1021 30.15 850 25.1 6.3 43.4 55 -2 28.4
07:25 1021 30.15 850 25.1 6.3 43.4 56 -1.9 28.6
07:30 1021 30.15 850 25.1 6.2 43.1 55 -2.1 28.2
07:35 1021 30.15 850 25.1 6.1 43 56 -2.1 28.3
07:40 1021 30.15 850 25.1 6.2 43.1 56 -2.1 28.3
07:45 1021 30.15 850 25.1 6.1 43.1 56 -2 28.3
07:50 1021 30.15 850 25.1 6.3 43.4 54 -2.2 28.1
07:55 1021 30.15 850 25.1 6.5 43.7 55 -1.9 28.6
08:00 1021 30.15 850 25.1 6.4 43.5 55 -2 28.5
08:05 1021 30.15 850 25.1 6.4 43.6 54 -2.1 28.3
08:10 1021 30.15 850 25.1 6.5 43.8 55 -1.9 28.5
08:15 1021 30.15 850 25.1 6.4 43.5 56 -1.9 28.7
08:20 1021 30.15 850 25.1 6 42.7 58 -1.7 28.9
08:25 1021 30.15 850 25.1 5.4 41.7 60 -1.8 28.8
08:30 1021 30.15 850 25.1 4.8 40.6 61 -2 28.4
08:35 1021 30.15 850 25.1 4.7 40.5 62 -1.9 28.6
08:40 1020 30.12 850 25.1 5.1 41.1 59 -2.3 27.8
08:45 1020 30.12 850 25.1 5.1 41.1 61 -1.9 28.6
08:50 1020 30.12 850 25.1 5 41 60 -2.1 28.3
08:55 1020 30.12 849 25.07 5.3 41.5 58 -2.3 27.9
09:00 1020 30.12 849 25.07 5.5 41.9 58 -2.1 28.3
09:05 1020 30.12 849 25.07 5.8 42.4 55 -2.5 27.6
09:10 1020 30.12 849 25.07 6 42.8 57 -1.9 28.6
09:15 1020 30.12 849 25.07 5.9 42.6 55 -2.3 27.8
09:20 1020 30.12 849 25.07 6.2 43.1 56 -2.1 28.3
09:25 1020 30.12 849 25.07 6.2 43.1 56 -1.9 28.6
09:30 1020 30.12 849 25.07 6.2 43.2 56 -1.9 28.7
09:35 1020 30.12 849 25.07 6.4 43.5 55 -2 28.4
09:40 1020 30.12 849 25.07 6.9 44.3 53 -2 28.4
09:45 1020 30.12 849 25.07 7.3 45.2 51 -2.1 28.3
09:50 1020 30.12 849 25.07 7.9 46.3 50 -1.9 28.5
09:55 1020 30.12 850 25.1 8.4 47.1 48 -2 28.4
10:00 1020 30.12 849 25.07 9.2 48.5 46 -1.9 28.6
10:05 1020 30.12 849 25.07 9.6 49.4 44 -2 28.5
10:10 1020 30.12 849 25.07 9.9 49.9 42 -2.3 27.9
10:15 1020 30.12 849 25.07 9.9 49.9 43 -2.1 28.3
10:20 1020 30.12 849 25.07 10.1 50.1 43 -1.8 28.7
10:25 1020 30.12 849 25.07 10.6 51.1 41 -2.1 28.2
10:30 1020 30.12 849 25.07 10.7 51.2 41 -2 28.5
10:35 1020 30.12 849 25.07 10.6 51.1 42 -1.9 28.7
10:40 1020 30.12 849 25.07 10.6 51.1 41 -2.1 28.3
10:45 1020 30.12 849 25.07 10.7 51.2 41 -2 28.4
10:50 1020 30.12 849 25.07 10.7 51.3 41 -2 28.4
10:55 1020 30.12 849 25.07 10.8 51.4 41 -1.9 28.6
11:00 1020 30.12 849 25.07 11.2 52.2 39 -2.2 28
11:05 1020 30.12 849 25.07 11.6 52.9 38 -2.1 28.3
11:10 1020 30.12 849 25.07 12 53.7 38 -1.9 28.6
11:15 1020 30.12 849 25.07 12.1 53.8 37 -1.9 28.5
11:20 1020 30.12 849 25.07 12.1 53.7 37 -2.3 27.8
11:25 1020 30.12 849 25.07 12.5 54.4 37 -1.9 28.6
11:30 1020 30.12 849 25.07 12.9 55.1 36 -1.7 29
11:35 1020 30.12 849 25.07 13.3 55.9 35 -1.8 28.8
11:40 1020 30.12 849 25.07 13.5 56.3 35 -1.6 29.2
11:45 1019 30.09 849 25.07 13.4 56 36 -1.3 29.6
11:50 1019 30.09 848 25.04 13 55.5 37 -1.3 29.7
11:55 1019 30.09 848 25.04 12.8 55 37 -1.3 29.6
12:00 1019 30.09 848 25.04 12.9 55.1 37 -1.3 29.7
12:05 1019 30.09 848 25.04 12 53.7 41 -0.6 30.9
12:10 1019 30.09 848 25.04 11.7 53.1 41 -0.9 30.4
12:15 1019 30.09 848 25.04 11.2 52.1 43 -0.9 30.4
12:20 1019 30.09 848 25.04 11.3 52.4 43 -0.6 31
12:25 1019 30.09 848 25.04 11.2 52.1 44 -0.5 31.1
12:30 1018 30.06 848 25.04 10.4 50.7 48 -0.3 31.5
12:35 1018 30.06 848 25.04 10.2 50.3 47 -0.8 30.6
12:40 1018 30.06 848 25.04 10.4 50.7 45 -1 30.2
12:45 1018 30.06 847 25.01 10.2 50.3 47 -0.5 31.2
12:50 1018 30.06 847 25.01 10.1 50.2 47 -0.6 30.9
12:55 1018 30.06 847 25.01 10.7 51.3 45 -0.7 30.7
13:00 1018 30.06 847 25.01 11 51.8 46 -0.3 31.5
13:05 1018 30.06 847 25.01 11.2 52.2 44 -0.5 31
13:10 1018 30.06 847 25.01 11 51.9 45 -0.5 31.1
13:15 1018 30.06 847 25.01 11.1 52 44 -0.6 31
13:20 1018 30.06 847 25.01 11.2 52.2 45 -0.3 31.5
13:25 1018 30.06 847 25.01 11 51.8 46 -0.2 31.7
13:30 1018 30.06 847 25.01 11 51.8 46 -0.1 31.8
13:35 1018 30.06 847 25.01 10.3 50.6 48 -0.1 31.8
13:40 1018 30.06 847 25.01 10.4 50.7 48 -0.1 31.8
13:45 1018 30.06 847 25.01 10.5 50.8 48 -0 32
13:50 1017 30.03 847 25.01 10.1 50.2 50 0.2 32.4
13:55 1017 30.03 846 24.98 9.8 49.6 49 -0.3 31.5
14:00 1017 30.03 846 24.98 10 50 49 -0.1 31.8
14:05 1017 30.03 846 24.98 10.2 50.3 48 -0.2 31.6
14:10 1017 30.03 846 24.98 10.2 50.4 49 -0.1 31.9
14:15 1017 30.03 846 24.98 10.2 50.3 49 -0 32
14:20 1017 30.03 846 24.98 9.9 49.7 50 0 32.1
14:25 1017 30.03 846 24.98 9.7 49.5 51 0.1 32.2
14:30 1017 30.03 846 24.98 9.9 49.8 51 0.4 32.6
14:35 1017 30.03 846 24.98 10.1 50.3 51 0.5 32.8
14:40 1017 30.03 846 24.98 10.2 50.4 52 0.7 33.3
14:45 1017 30.03 846 24.98 9.8 49.6 52 0.5 33
14:50 1017 30.03 846 24.98 9.9 49.7 52 0.4 32.8
14:55 1016 30 846 24.98 10.2 50.3 51 0.5 32.9
15:00 1016 30 846 24.98 10 50 52 0.7 33.3
15:05 1016 30 846 24.98 9.8 49.7 52 0.5 32.9
15:10 1016 30 846 24.98 9.4 48.9 55 1 33.7
15:15 1016 30 845 24.95 9.1 48.3 58 1.2 34.2
15:20 1016 30 846 24.98 8.9 48.1 58 1.1 34.1
15:25 1016 30 845 24.95 8.9 48 57 0.9 33.6
15:30 1016 30 845 24.95 9 48.3 56 0.9 33.5
15:35 1016 30 845 24.95 9.3 48.8 58 1.4 34.6
15:40 1016 30 845 24.95 9.3 48.8 57 1.3 34.4
15:45 1016 30 845 24.95 9.2 48.6 56 1.1 33.9
15:50 1016 30 845 24.95 9.1 48.3 59 1.4 34.6
15:55 1016 30 845 24.95 8.9 48.1 59 1.5 34.7
16:00 1016 30 845 24.95 9.1 48.3 59 1.5 34.6
16:05 1016 30 845 24.95 9.4 48.9 57 1.5 34.6
16:10 1016 30 845 24.95 9.7 49.4 57 1.6 34.9
16:15 1016 30 845 24.95 9.7 49.5 57 1.7 35.1
16:20 1016 30 845 24.95 9.7 49.4 58 1.7 35.1
16:25 1016 30 845 24.95 9.5 49.2 57 1.6 34.9
16:30 1016 30 845 24.95 9.3 48.7 57 1.4 34.4
16:35 1016 30 845 24.95 8.9 48 59 1.4 34.6
16:40 1016 30 845 24.95 8.8 47.8 59 1.3 34.4
16:45 1016 30 845 24.95 8.5 47.4 61 1.4 34.5
16:50 1016 30 845 24.95 8.4 47 61 1.3 34.4
16:55 1016 30 845 24.95 8.3 46.9 61 1.3 34.3
17:00 1016 30 845 24.95 8.3 46.9 61 1.2 34.2
17:05 1016 30 845 24.95 8.3 47 61 1.3 34.3
17:10 1016 30 845 24.95 8.3 46.9 62 1.4 34.6
17:15 1016 30 845 24.95 8.1 46.6 62 1.2 34.1
17:20 1016 30 845 24.95 8.2 46.7 63 1.5 34.7
17:25 1016 30 845 24.95 7.9 46.2 64 1.5 34.7
17:30 1016 30 845 24.95 7.5 45.5 66 1.6 34.8
17:35 1016 30 845 24.95 7.3 45.1 67 1.5 34.7
17:40 1016 30 845 24.95 7.3 45.1 67 1.5 34.7
17:45 1016 30 845 24.95 7.3 45.1 66 1.4 34.5
17:50 1016 30 845 24.95 7.3 45.2 66 1.5 34.7
17:55 1016 30 845 24.95 7 44.6 68 1.5 34.8
18:00 1016 30 845 24.95 6.7 44 68 1.2 34.2
18:05 1016 30 845 24.95 6.9 44.4 66 1.1 34
18:10 1016 30 845 24.95 7 44.6 67 1.4 34.4
18:15 1016 30 845 24.95 6.6 43.9 68 1.1 34
18:20 1016 30 845 24.95 6.3 43.3 69 0.9 33.6
18:25 1016 30 845 24.95 6.4 43.5 66 0.5 33
18:30 1016 30 845 24.95 6.4 43.5 66 0.6 33.1
18:35 1016 30 846 24.98 6.2 43.2 66 0.3 32.6
18:40 1016 30 846 24.98 6.8 44.2 63 0.3 32.5
18:45 1016 30 846 24.98 6.8 44.2 61 -0.3 31.5
18:50 1016 30 845 24.95 6.8 44.3 60 -0.5 31.1
18:55 1016 30 845 24.95 6.6 44 63 0.2 32.3
19:00 1016 30 845 24.95 6.2 43.2 63 -0.4 31.4
19:05 1016 30 845 24.95 6.7 44 60 -0.6 30.9
19:10 1016 30 845 24.95 6.5 43.7 59 -0.9 30.3
19:15 1016 30 845 24.95 7.2 44.9 56 -1 30.1
19:20 1016 30 845 24.95 7.6 45.7 54 -1.1 30
19:25 1016 30 845 24.95 7.9 46.3 53 -1.1 30
19:30 1016 30 845 24.95 8.4 47.1 51 -1.1 30
19:35 1016 30 845 24.95 8.2 46.8 53 -0.8 30.5
19:40 1016 30 845 24.95 8.2 46.7 52 -1.1 29.9
19:45 1016 30 845 24.95 8.3 47 52 -0.9 30.3
19:50 1016 30 845 24.95 8.2 46.7 54 -0.5 31.1
19:55 1016 30 845 24.95 7.9 46.2 55 -0.6 30.9
20:00 1016 30 845 24.95 7.4 45.2 57 -0.6 30.9
20:05 1016 30 845 24.95 7.2 44.9 55 -1.2 29.8
20:10 1016 30 845 24.95 7.3 45.2 58 -0.3 31.5
20:15 1016 30 845 24.95 5.9 42.6 63 -0.6 31
20:20 1016 30 846 24.98 6 42.7 61 -1 30.1
20:25 1017 30.03 846 24.98 6.3 43.3 61 -0.7 30.8
20:30 1016 30 846 24.98 6.3 43.4 60 -0.9 30.3
20:35 1016 30 846 24.98 7 44.5 57 -0.9 30.3
20:40 1016 30 846 24.98 7.4 45.2 56 -0.8 30.5
20:45 1017 30.03 846 24.98 7.4 45.4 57 -0.6 31
20:50 1017 30.03 846 24.98 7.3 45.2 57 -0.5 31.1
20:55 1016 30 846 24.98 7.3 45.2 57 -0.6 30.9
21:00 1016 30 845 24.95 6.9 44.5 60 -0.3 31.4
21:05 1016 30 845 24.95 6 42.8 63 -0.5 31.1
21:10 1016 30 845 24.95 6.2 43.1 59 -1.2 29.8
21:15 1016 30 845 24.95 6.9 44.4 59 -0.5 31.1
21:20 1016 30 846 24.98 7 44.6 57 -1 30.1
21:25 1016 30 845 24.95 7.4 45.3 57 -0.6 31
21:30 1016 30 845 24.95 7.4 45.4 57 -0.6 30.9
21:35 1016 30 845 24.95 6.4 43.6 60 -0.7 30.7
21:40 1016 30 845 24.95 6.4 43.5 60 -0.9 30.4
21:45 1016 30 845 24.95 6.5 43.7 58 -1.2 29.8
21:50 1016 30 845 24.95 6.8 44.2 59 -0.8 30.6
21:55 1016 30 845 24.95 6.6 43.9 58 -1.1 30.1
22:00 1016 30 845 24.95 7 44.7 55 -1.3 29.6
22:05 1016 30 845 24.95 7.2 44.9 60 -0.2 31.7
22:10 1016 30 845 24.95 6 42.8 61 -0.9 30.5
22:15 1016 30 845 24.95 6.2 43.1 61 -0.7 30.7
22:20 1016 30 845 24.95 6 42.9 62 -0.7 30.7
22:25 1016 30 845 24.95 5.9 42.7 63 -0.6 30.9
22:30 1016 30 845 24.95 5.9 42.6 61 -1 30.2
22:35 1016 30 845 24.95 6.2 43.2 61 -0.8 30.6
22:40 1016 30 845 24.95 6.5 43.8 60 -0.7 30.7
22:45 1016 30 845 24.95 6.7 44.1 59 -0.7 30.7
22:50 1016 30 845 24.95 6.8 44.3 59 -0.7 30.8
22:55 1016 30 845 24.95 6.9 44.4 58 -0.7 30.7
23:00 1016 30 845 24.95 6.8 44.3 59 -0.6 30.9
23:05 1016 30 845 24.95 6.5 43.7 61 -0.5 31.1
23:10 1016 30 845 24.95 6 42.9 62 -0.7 30.7
23:15 1016 30 845 24.95 5.8 42.5 63 -0.8 30.6
23:20 1016 30 845 24.95 5.8 42.4 62 -0.8 30.5
23:25 1016 30 845 24.95 5.2 41.3 67 -0.5 31.1
23:30 1016 30 845 24.95 5.3 41.5 64 -1 30.2
23:35 1016 30 845 24.95 5.8 42.4 62 -0.9 30.4
23:40 1016 30 845 24.95 5.7 42.3 62 -1 30.2
23:45 1016 30 845 24.95 5.9 42.6 61 -1.1 30
23:50 1016 30 845 24.95 6.2 43.2 59 -1.1 30
23:55 1016 30 845 24.95 6.5 43.8 58 -1.1 30
24:00 1016 30 845 24.95 6.4 43.6 59 -1 30.1